createdAt,value
2022-10-17T00:02:33.181Z,66
2022-10-17T00:08:11.221Z,66.2
2022-10-17T00:13:47.098Z,66.6
2022-10-17T00:19:23.090Z,67.4
2022-10-17T00:24:58.074Z,67.8
2022-10-17T00:30:32.934Z,67.8
2022-10-17T00:36:09.137Z,67.6
2022-10-17T00:42:05.786Z,67.2
2022-10-17T00:47:38.349Z,67
2022-10-17T00:53:13.601Z,66.9
2022-10-17T00:58:48.680Z,67.1
2022-10-17T01:04:23.583Z,67.3
2022-10-17T01:09:58.433Z,67.2
2022-10-17T01:15:33.361Z,66.8
2022-10-17T01:21:08.144Z,65.9
2022-10-17T01:26:46.162Z,66.7
2022-10-17T01:32:30.960Z,67.2
2022-10-17T01:38:07.265Z,67.2
2022-10-17T01:44:03.796Z,67.3
2022-10-17T01:49:36.390Z,67.9
2022-10-17T01:55:11.432Z,68.4
2022-10-17T02:00:46.266Z,68.6
2022-10-17T02:06:23.070Z,68.3
2022-10-17T02:12:07.020Z,66.9
2022-10-17T02:17:47.844Z,67
2022-10-17T02:23:22.903Z,67.6
2022-10-17T02:28:57.883Z,68
2022-10-17T02:34:53.862Z,68.5
2022-10-17T02:40:57.609Z,68.8
2022-10-17T02:46:30.347Z,68.9
2022-10-17T02:52:05.183Z,68.6
2022-10-17T02:57:39.948Z,68.5
2022-10-17T03:03:21.561Z,68.4
2022-10-17T03:10:32.330Z,68.5
2022-10-17T03:16:07.266Z,68.9
2022-10-17T03:21:42.297Z,69.4
2022-10-17T03:27:38.143Z,69.3
2022-10-17T03:33:13.060Z,69.4
2022-10-17T03:38:48.966Z,69.3
2022-10-17T03:45:15.354Z,69.5
2022-10-17T03:50:51.165Z,70
2022-10-17T03:56:25.962Z,70.3
2022-10-17T04:02:04.011Z,70.7
2022-10-17T04:07:48.078Z,70.9
2022-10-17T04:13:23.919Z,70.9
2022-10-17T04:19:00.004Z,70.3
2022-10-17T04:24:34.935Z,69
2022-10-17T04:30:09.718Z,68.3
2022-10-17T04:36:07.915Z,68.8
2022-10-17T04:42:04.682Z,69.4
2022-10-17T04:47:37.508Z,69.3
2022-10-17T04:53:12.209Z,69.5
2022-10-17T04:58:47.098Z,69.5
2022-10-17T05:04:25.479Z,69.5
2022-10-17T05:12:57.869Z,69.4
2022-10-17T05:18:32.979Z,69.3
2022-10-17T05:24:07.744Z,69.3
2022-10-17T05:29:45.124Z,69.3
2022-10-17T05:35:23.954Z,69.4
2022-10-17T05:41:32.225Z,69.6
2022-10-17T05:47:06.403Z,69.8
2022-10-17T05:52:55.921Z,69.9
2022-10-17T05:58:57.431Z,70.2
2022-10-17T06:04:44.471Z,70.4
2022-10-17T06:10:26.669Z,70.6
2022-10-17T06:16:30.659Z,70.8
2022-10-17T06:22:10.473Z,71
2022-10-17T06:27:47.001Z,73.2
2022-10-17T06:33:53.388Z,75.4
2022-10-17T06:39:29.454Z,77.3
2022-10-17T06:45:07.319Z,79.9
2022-10-17T06:50:47.569Z,81.2
2022-10-17T06:56:40.488Z,83.5
2022-10-17T07:02:15.765Z,82.2
2022-10-17T07:07:52.617Z,81.4
2022-10-17T07:13:39.555Z,81.3
2022-10-17T07:19:25.853Z,81.7
2022-10-17T07:25:18.267Z,82.7
2022-10-17T07:30:54.787Z,81.4
2022-10-17T07:36:30.711Z,81.8
2022-10-17T07:42:27.747Z,78.9
2022-10-17T07:48:01.592Z,79
2022-10-17T07:55:08.485Z,79.6
2022-10-17T08:00:49.641Z,80.5
2022-10-17T08:06:27.367Z,82.4
2022-10-17T08:12:04.816Z,80.2
2022-10-17T08:17:43.132Z,78.6
2022-10-17T08:23:17.982Z,79.1
2022-10-17T08:28:55.977Z,80
2022-10-17T08:34:31.883Z,78.5
2022-10-17T08:40:16.469Z,80.9
2022-10-17T08:45:51.445Z,80.1
2022-10-17T08:51:35.395Z,80.1
2022-10-17T08:57:12.520Z,79.6
2022-10-17T09:02:50.641Z,78.6
2022-10-17T09:08:56.092Z,79.2
2022-10-17T09:14:31.202Z,78.1
2022-10-17T09:20:06.129Z,80.1
2022-10-17T09:25:40.942Z,81
2022-10-17T09:31:15.756Z,79.8
2022-10-17T09:36:54.771Z,78.6
2022-10-17T09:42:51.355Z,77.7
2022-10-17T09:48:24.462Z,77.2
2022-10-17T09:54:17.875Z,75.8
2022-10-17T09:59:56.311Z,76.2
2022-10-17T10:05:32.273Z,73.5
2022-10-17T10:11:11.869Z,70.5
2022-10-17T10:16:57.349Z,69.4
2022-10-17T10:22:35.670Z,68.9
2022-10-17T10:28:28.700Z,66.2
2022-10-17T10:34:06.759Z,68
2022-10-17T10:39:45.891Z,66
2022-10-17T10:45:48.622Z,66.2
2022-10-17T10:51:24.806Z,67.2
2022-10-17T10:57:00.389Z,65.3
2022-10-17T11:02:38.675Z,64.5
2022-10-17T11:08:15.655Z,62.7
2022-10-17T11:13:54.475Z,62.8
2022-10-17T11:19:29.828Z,62.6
2022-10-17T11:25:05.490Z,54.3
2022-10-17T11:30:40.922Z,57.5
2022-10-17T11:36:16.533Z,63.7
2022-10-17T11:42:13.264Z,64
2022-10-17T11:47:46.175Z,65
2022-10-17T11:53:31.408Z,64.4
2022-10-17T11:59:06.993Z,63.9
2022-10-17T12:05:09.226Z,61.7
2022-10-17T12:10:53.303Z,60.7
2022-10-17T12:16:31.534Z,58.9
2022-10-17T12:22:07.525Z,56.9
2022-10-17T12:27:43.222Z,52.8
2022-10-17T12:33:26.084Z,52.4
2022-10-17T12:39:05.854Z,52.9
2022-10-17T12:44:42.527Z,50.7
2022-10-17T12:50:25.623Z,50.3
2022-10-17T12:56:02.145Z,51.1
2022-10-17T13:01:43.829Z,50.7
2022-10-17T13:07:40.087Z,47.8
2022-10-17T13:13:16.337Z,44.8
2022-10-17T13:19:05.154Z,49
2022-10-17T13:24:48.014Z,48
2022-10-17T13:30:32.476Z,45.3
2022-10-17T13:36:10.150Z,43.1
2022-10-17T13:41:55.213Z,43.2
2022-10-17T13:47:36.191Z,46.2
2022-10-17T13:53:13.222Z,42.2
2022-10-17T13:58:49.281Z,38.2
2022-10-17T14:04:27.627Z,34
2022-10-17T14:10:02.623Z,37.8
2022-10-17T14:15:39.213Z,41.6
2022-10-17T14:21:44.495Z,46.5
2022-10-17T14:28:12.881Z,47.8
2022-10-17T14:33:51.457Z,46.3
2022-10-17T14:39:27.057Z,42.8
2022-10-17T14:45:05.249Z,44.7
2022-10-17T14:56:21.767Z,48.2
2022-10-17T15:02:03.928Z,50.6
2022-10-17T15:07:47.387Z,51.7
2022-10-17T15:13:48.344Z,47.9
2022-10-17T15:19:44.516Z,50.7
2022-10-17T15:25:28.199Z,49.1
2022-10-17T15:32:33.689Z,49.6
2022-10-17T15:38:10.764Z,52.4
2022-10-17T15:43:54.221Z,52.8
2022-10-17T15:49:29.136Z,54.1
2022-10-17T15:55:24.667Z,54.5
2022-10-17T16:01:07.670Z,54.4
2022-10-17T16:06:42.995Z,54.1
2022-10-17T16:12:39.702Z,56.5
2022-10-17T16:18:35.177Z,54.7
2022-10-17T16:24:13.474Z,55
2022-10-17T16:29:48.815Z,54.8
2022-10-17T16:35:24.318Z,56.3
2022-10-17T16:41:12.704Z,57.2
2022-10-17T16:46:49.025Z,56.7
2022-10-17T16:52:23.684Z,58.8
2022-10-17T16:57:59.737Z,59.4
2022-10-17T17:03:53.871Z,58.6
2022-10-17T17:09:28.638Z,60.2
2022-10-17T17:15:03.612Z,60.8
2022-10-17T17:20:49.850Z,62.6
2022-10-17T17:26:27.606Z,62.7
2022-10-17T17:32:23.411Z,63.3
2022-10-17T17:37:58.286Z,64.6
2022-10-17T17:43:54.953Z,62.5
2022-10-17T17:49:27.509Z,64.8
2022-10-17T17:55:02.338Z,65.5
2022-10-17T18:00:46.398Z,66
2022-10-17T18:06:23.679Z,68.6
2022-10-17T18:11:59.415Z,68.5
2022-10-17T18:17:34.255Z,68.9
2022-10-17T18:23:10.470Z,69.4
2022-10-17T18:28:45.580Z,69.4
2022-10-17T18:34:20.432Z,69.4
2022-10-17T18:39:55.301Z,71.1
2022-10-17T18:45:31.640Z,71.2
2022-10-17T18:51:07.420Z,71.2
2022-10-17T18:56:42.245Z,70.9
2022-10-17T19:02:17.158Z,72.3
2022-10-17T19:07:57.130Z,73.3
2022-10-17T19:13:32.302Z,73.4
2022-10-17T19:19:08.605Z,72.9
2022-10-17T19:24:43.638Z,74.2
2022-10-17T19:30:26.052Z,74.6
2022-10-17T19:36:04.416Z,71.9
2022-10-17T19:42:07.205Z,75
2022-10-17T19:47:40.248Z,94.4
2022-10-17T19:53:18.202Z,96.4
2022-10-17T19:59:18.151Z,97.3
2022-10-17T20:05:17.896Z,97.2
2022-10-17T20:11:03.849Z,97.4
2022-10-17T20:16:54.833Z,97.6
2022-10-17T20:22:31.192Z,97.7
2022-10-17T20:28:07.662Z,97.5
2022-10-17T20:33:43.615Z,96.8
2022-10-17T20:39:27.531Z,96.6
2022-10-17T20:45:12.160Z,95.1
2022-10-17T20:50:52.304Z,95.2
2022-10-17T20:56:49.374Z,93
2022-10-17T21:02:43.390Z,92.2
2022-10-17T21:08:18.807Z,92.6
2022-10-17T21:13:53.911Z,92.3
2022-10-17T21:19:29.025Z,91.9
2022-10-17T21:25:04.907Z,91.7
2022-10-17T21:30:39.854Z,91.6
2022-10-17T21:36:16.049Z,91.4
2022-10-17T21:42:12.838Z,91
2022-10-17T21:48:12.797Z,90.9
2022-10-17T21:53:48.733Z,90.5
2022-10-17T21:59:23.581Z,90.4
2022-10-17T22:04:58.534Z,90.3
2022-10-17T22:10:33.391Z,90.2
2022-10-17T22:16:08.450Z,89.8
2022-10-17T22:21:43.360Z,89.5
2022-10-17T22:27:18.785Z,89.2
2022-10-17T22:33:03.355Z,88.7
2022-10-17T22:38:38.349Z,88.5
2022-10-17T22:44:13.314Z,87.9
2022-10-17T22:49:49.408Z,87.4
2022-10-17T22:55:24.533Z,87.4
2022-10-17T23:00:59.404Z,87.4
2022-10-17T23:06:34.735Z,87.2
2022-10-17T23:12:10.241Z,86.7
2022-10-17T23:17:45.050Z,86.3
2022-10-17T23:23:19.693Z,85.7
2022-10-17T23:28:55.247Z,85.2
2022-10-17T23:34:30.858Z,85.4
2022-10-17T23:40:05.650Z,85.4
2022-10-17T23:51:16.445Z,85.6
2022-10-17T23:56:51.482Z,85.4
